sensor_id;sensor_type;location;lat;lon;timestamp;P1;durP1;ratioP1;P2;durP2;ratioP2
23175;SDS011;19910;42.652;23.332;2023-07-30T00:00:37;3.47;;;2.15;;
23175;SDS011;19910;42.652;23.332;2023-07-30T00:03:03;8.32;;;2.30;;
23175;SDS011;19910;42.652;23.332;2023-07-30T00:05:30;8.40;;;2.63;;
23175;SDS011;19910;42.652;23.332;2023-07-30T00:07:57;2.47;;;2.20;;
23175;SDS011;19910;42.652;23.332;2023-07-30T00:10:24;5.00;;;2.55;;
23175;SDS011;19910;42.652;23.332;2023-07-30T00:12:52;4.55;;;2.45;;
23175;SDS011;19910;42.652;23.332;2023-07-30T00:15:19;3.78;;;2.40;;
23175;SDS011;19910;42.652;23.332;2023-07-30T00:17:46;3.15;;;2.15;;
23175;SDS011;19910;42.652;23.332;2023-07-30T00:20:13;7.90;;;2.55;;
23175;SDS011;19910;42.652;23.332;2023-07-30T00:22:39;3.55;;;2.38;;
23175;SDS011;19910;42.652;23.332;2023-07-30T00:25:06;4.40;;;2.40;;
23175;SDS011;19910;42.652;23.332;2023-07-30T00:27:34;6.10;;;3.03;;
23175;SDS011;19910;42.652;23.332;2023-07-30T00:30:02;3.15;;;2.20;;
23175;SDS011;19910;42.652;23.332;2023-07-30T00:32:29;6.78;;;2.72;;
23175;SDS011;19910;42.652;23.332;2023-07-30T00:34:56;3.17;;;2.35;;
23175;SDS011;19910;42.652;23.332;2023-07-30T00:37:23;4.70;;;2.35;;
23175;SDS011;19910;42.652;23.332;2023-07-30T00:39:50;3.60;;;2.00;;
23175;SDS011;19910;42.652;23.332;2023-07-30T00:42:16;2.50;;;2.20;;
23175;SDS011;19910;42.652;23.332;2023-07-30T00:44:43;3.75;;;2.35;;
23175;SDS011;19910;42.652;23.332;2023-07-30T00:47:11;3.63;;;2.13;;
23175;SDS011;19910;42.652;23.332;2023-07-30T00:49:38;6.00;;;2.70;;
23175;SDS011;19910;42.652;23.332;2023-07-30T00:52:05;4.88;;;2.58;;
23175;SDS011;19910;42.652;23.332;2023-07-30T00:54:33;3.67;;;2.38;;
23175;SDS011;19910;42.652;23.332;2023-07-30T00:57:00;2.92;;;2.08;;
23175;SDS011;19910;42.652;23.332;2023-07-30T00:59:27;5.97;;;2.42;;
23175;SDS011;19910;42.652;23.332;2023-07-30T01:01:54;2.63;;;2.10;;
23175;SDS011;19910;42.652;23.332;2023-07-30T01:04:25;3.00;;;2.15;;
23175;SDS011;19910;42.652;23.332;2023-07-30T01:06:52;4.68;;;2.50;;
23175;SDS011;19910;42.652;23.332;2023-07-30T01:09:19;2.88;;;1.98;;
23175;SDS011;19910;42.652;23.332;2023-07-30T01:11:46;4.20;;;2.55;;
23175;SDS011;19910;42.652;23.332;2023-07-30T01:14:13;5.28;;;2.55;;
23175;SDS011;19910;42.652;23.332;2023-07-30T01:16:41;5.30;;;2.25;;
23175;SDS011;19910;42.652;23.332;2023-07-30T01:19:08;3.30;;;2.53;;
23175;SDS011;19910;42.652;23.332;2023-07-30T01:21:37;3.03;;;2.25;;
23175;SDS011;19910;42.652;23.332;2023-07-30T01:24:04;3.10;;;2.38;;
23175;SDS011;19910;42.652;23.332;2023-07-30T01:26:32;8.15;;;2.65;;
23175;SDS011;19910;42.652;23.332;2023-07-30T01:29:04;3.53;;;2.50;;
23175;SDS011;19910;42.652;23.332;2023-07-30T01:31:36;3.05;;;2.20;;
23175;SDS011;19910;42.652;23.332;2023-07-30T01:34:06;3.97;;;2.40;;
23175;SDS011;19910;42.652;23.332;2023-07-30T01:36:35;2.92;;;2.05;;
23175;SDS011;19910;42.652;23.332;2023-07-30T01:39:05;6.05;;;2.58;;
23175;SDS011;19910;42.652;23.332;2023-07-30T01:41:33;4.18;;;2.22;;
23175;SDS011;19910;42.652;23.332;2023-07-30T01:44:00;4.03;;;2.40;;
23175;SDS011;19910;42.652;23.332;2023-07-30T01:46:27;3.38;;;2.45;;
23175;SDS011;19910;42.652;23.332;2023-07-30T01:48:54;3.55;;;2.20;;
23175;SDS011;19910;42.652;23.332;2023-07-30T01:51:21;3.20;;;2.38;;
23175;SDS011;19910;42.652;23.332;2023-07-30T01:53:49;4.50;;;2.17;;
23175;SDS011;19910;42.652;23.332;2023-07-30T01:56:16;4.07;;;2.60;;
23175;SDS011;19910;42.652;23.332;2023-07-30T01:58:42;3.78;;;2.40;;
23175;SDS011;19910;42.652;23.332;2023-07-30T02:01:09;2.65;;;2.28;;
23175;SDS011;19910;42.652;23.332;2023-07-30T02:03:36;2.33;;;2.03;;
23175;SDS011;19910;42.652;23.332;2023-07-30T02:06:03;4.70;;;2.20;;
23175;SDS011;19910;42.652;23.332;2023-07-30T02:08:30;5.32;;;2.72;;
23175;SDS011;19910;42.652;23.332;2023-07-30T02:10:58;3.95;;;2.33;;
23175;SDS011;19910;42.652;23.332;2023-07-30T02:13:25;5.28;;;2.47;;
23175;SDS011;19910;42.652;23.332;2023-07-30T02:15:52;4.00;;;2.47;;
23175;SDS011;19910;42.652;23.332;2023-07-30T02:18:19;5.88;;;2.10;;
23175;SDS011;19910;42.652;23.332;2023-07-30T02:20:46;3.63;;;2.40;;
23175;SDS011;19910;42.652;23.332;2023-07-30T02:23:13;3.13;;;2.22;;
23175;SDS011;19910;42.652;23.332;2023-07-30T02:25:41;2.83;;;2.17;;
23175;SDS011;19910;42.652;23.332;2023-07-30T02:28:10;3.53;;;2.17;;
23175;SDS011;19910;42.652;23.332;2023-07-30T02:30:37;2.95;;;2.15;;
23175;SDS011;19910;42.652;23.332;2023-07-30T02:33:03;3.00;;;2.28;;
23175;SDS011;19910;42.652;23.332;2023-07-30T02:35:31;4.55;;;2.63;;
23175;SDS011;19910;42.652;23.332;2023-07-30T02:37:58;2.42;;;2.22;;
23175;SDS011;19910;42.652;23.332;2023-07-30T02:40:25;4.70;;;2.75;;
23175;SDS011;19910;42.652;23.332;2023-07-30T02:42:51;3.92;;;2.08;;
23175;SDS011;19910;42.652;23.332;2023-07-30T02:45:20;2.65;;;2.22;;
23175;SDS011;19910;42.652;23.332;2023-07-30T02:47:46;4.10;;;2.05;;
23175;SDS011;19910;42.652;23.332;2023-07-30T02:50:13;3.90;;;2.30;;
23175;SDS011;19910;42.652;23.332;2023-07-30T02:52:40;4.55;;;2.55;;
23175;SDS011;19910;42.652;23.332;2023-07-30T02:55:07;4.50;;;2.33;;
23175;SDS011;19910;42.652;23.332;2023-07-30T02:57:34;3.05;;;2.35;;
23175;SDS011;19910;42.652;23.332;2023-07-30T03:00:01;2.67;;;2.10;;
23175;SDS011;19910;42.652;23.332;2023-07-30T03:02:31;5.70;;;2.63;;
23175;SDS011;19910;42.652;23.332;2023-07-30T03:04:58;2.85;;;1.88;;
23175;SDS011;19910;42.652;23.332;2023-07-30T03:07:24;6.20;;;2.63;;
23175;SDS011;19910;42.652;23.332;2023-07-30T03:09:51;3.67;;;2.20;;
23175;SDS011;19910;42.652;23.332;2023-07-30T03:12:18;5.50;;;2.28;;
23175;SDS011;19910;42.652;23.332;2023-07-30T03:14:45;3.33;;;2.30;;
23175;SDS011;19910;42.652;23.332;2023-07-30T03:17:12;3.63;;;2.55;;
23175;SDS011;19910;42.652;23.332;2023-07-30T03:19:40;4.13;;;2.60;;
23175;SDS011;19910;42.652;23.332;2023-07-30T03:22:07;3.50;;;2.55;;
23175;SDS011;19910;42.652;23.332;2023-07-30T03:24:33;3.67;;;2.55;;
23175;SDS011;19910;42.652;23.332;2023-07-30T03:27:00;4.28;;;2.70;;
23175;SDS011;19910;42.652;23.332;2023-07-30T03:29:27;6.90;;;2.70;;
23175;SDS011;19910;42.652;23.332;2023-07-30T03:31:54;2.95;;;2.55;;
23175;SDS011;19910;42.652;23.332;2023-07-30T03:34:20;3.95;;;2.67;;
23175;SDS011;19910;42.652;23.332;2023-07-30T03:36:49;3.20;;;2.45;;
23175;SDS011;19910;42.652;23.332;2023-07-30T03:39:15;3.78;;;2.45;;
23175;SDS011;19910;42.652;23.332;2023-07-30T03:41:42;4.25;;;3.00;;
23175;SDS011;19910;42.652;23.332;2023-07-30T03:44:09;4.20;;;2.80;;
23175;SDS011;19910;42.652;23.332;2023-07-30T03:46:36;2.63;;;2.20;;
23175;SDS011;19910;42.652;23.332;2023-07-30T03:49:02;6.53;;;3.28;;
23175;SDS011;19910;42.652;23.332;2023-07-30T03:51:31;4.68;;;3.22;;
23175;SDS011;19910;42.652;23.332;2023-07-30T03:53:59;4.07;;;2.88;;
23175;SDS011;19910;42.652;23.332;2023-07-30T03:56:26;3.88;;;3.08;;
23175;SDS011;19910;42.652;23.332;2023-07-30T03:58:53;2.88;;;2.50;;
23175;SDS011;19910;42.652;23.332;2023-07-30T04:01:20;6.82;;;2.90;;
23175;SDS011;19910;42.652;23.332;2023-07-30T04:03:46;3.92;;;2.83;;
23175;SDS011;19910;42.652;23.332;2023-07-30T04:06:13;4.57;;;2.38;;
23175;SDS011;19910;42.652;23.332;2023-07-30T04:08:40;6.82;;;2.45;;
23175;SDS011;19910;42.652;23.332;2023-07-30T04:11:08;3.17;;;2.22;;
23175;SDS011;19910;42.652;23.332;2023-07-30T04:13:35;6.32;;;2.95;;
23175;SDS011;19910;42.652;23.332;2023-07-30T04:16:02;7.90;;;2.60;;
23175;SDS011;19910;42.652;23.332;2023-07-30T04:18:29;6.18;;;2.72;;
23175;SDS011;19910;42.652;23.332;2023-07-30T04:20:55;4.90;;;3.08;;
23175;SDS011;19910;42.652;23.332;2023-07-30T04:23:22;4.00;;;2.28;;
23175;SDS011;19910;42.652;23.332;2023-07-30T04:25:49;4.43;;;2.63;;
23175;SDS011;19910;42.652;23.332;2023-07-30T04:28:17;5.82;;;2.92;;
23175;SDS011;19910;42.652;23.332;2023-07-30T04:30:44;3.30;;;2.83;;
23175;SDS011;19910;42.652;23.332;2023-07-30T04:33:12;3.67;;;2.90;;
23175;SDS011;19910;42.652;23.332;2023-07-30T04:35:39;5.40;;;3.60;;
23175;SDS011;19910;42.652;23.332;2023-07-30T04:38:06;4.22;;;3.00;;
23175;SDS011;19910;42.652;23.332;2023-07-30T04:40:33;3.30;;;3.00;;
23175;SDS011;19910;42.652;23.332;2023-07-30T04:43:00;5.25;;;3.42;;
23175;SDS011;19910;42.652;23.332;2023-07-30T04:45:28;7.28;;;3.60;;
23175;SDS011;19910;42.652;23.332;2023-07-30T04:47:55;4.80;;;3.28;;
23175;SDS011;19910;42.652;23.332;2023-07-30T04:50:22;4.47;;;2.95;;
23175;SDS011;19910;42.652;23.332;2023-07-30T04:52:49;5.30;;;3.40;;
23175;SDS011;19910;42.652;23.332;2023-07-30T04:55:16;4.35;;;3.15;;
23175;SDS011;19910;42.652;23.332;2023-07-30T04:57:42;3.55;;;3.05;;
23175;SDS011;19910;42.652;23.332;2023-07-30T05:00:10;4.68;;;3.38;;
23175;SDS011;19910;42.652;23.332;2023-07-30T05:02:39;5.82;;;3.08;;
23175;SDS011;19910;42.652;23.332;2023-07-30T05:05:05;4.55;;;2.95;;
23175;SDS011;19910;42.652;23.332;2023-07-30T05:07:32;4.40;;;3.00;;
23175;SDS011;19910;42.652;23.332;2023-07-30T05:09:59;2.65;;;2.45;;
23175;SDS011;19910;42.652;23.332;2023-07-30T05:12:26;3.65;;;2.80;;
23175;SDS011;19910;42.652;23.332;2023-07-30T05:14:53;4.38;;;3.40;;
23175;SDS011;19910;42.652;23.332;2023-07-30T05:17:19;4.82;;;2.53;;
23175;SDS011;19910;42.652;23.332;2023-07-30T05:19:48;4.10;;;2.88;;
23175;SDS011;19910;42.652;23.332;2023-07-30T05:22:14;4.00;;;2.58;;
23175;SDS011;19910;42.652;23.332;2023-07-30T05:24:41;2.95;;;2.35;;
23175;SDS011;19910;42.652;23.332;2023-07-30T05:27:08;3.10;;;2.75;;
23175;SDS011;19910;42.652;23.332;2023-07-30T05:29:35;3.55;;;3.03;;
23175;SDS011;19910;42.652;23.332;2023-07-30T05:32:02;3.35;;;3.05;;
23175;SDS011;19910;42.652;23.332;2023-07-30T05:34:29;3.20;;;2.70;;
23175;SDS011;19910;42.652;23.332;2023-07-30T05:36:57;2.97;;;2.38;;
23175;SDS011;19910;42.652;23.332;2023-07-30T05:39:24;3.65;;;2.58;;
23175;SDS011;19910;42.652;23.332;2023-07-30T05:41:51;3.35;;;3.05;;
23175;SDS011;19910;42.652;23.332;2023-07-30T05:44:18;5.00;;;2.80;;
23175;SDS011;19910;42.652;23.332;2023-07-30T05:46:44;2.72;;;2.53;;
23175;SDS011;19910;42.652;23.332;2023-07-30T05:49:11;3.78;;;2.38;;
23175;SDS011;19910;42.652;23.332;2023-07-30T05:51:39;3.63;;;2.83;;
23175;SDS011;19910;42.652;23.332;2023-07-30T05:54:08;3.33;;;2.83;;
23175;SDS011;19910;42.652;23.332;2023-07-30T05:56:34;4.53;;;2.85;;
23175;SDS011;19910;42.652;23.332;2023-07-30T05:59:01;4.88;;;2.92;;
23175;SDS011;19910;42.652;23.332;2023-07-30T06:01:28;2.90;;;2.60;;
23175;SDS011;19910;42.652;23.332;2023-07-30T06:03:54;2.95;;;2.42;;
23175;SDS011;19910;42.652;23.332;2023-07-30T06:06:21;3.03;;;2.72;;
23175;SDS011;19910;42.652;23.332;2023-07-30T06:08:52;3.25;;;2.88;;
23175;SDS011;19910;42.652;23.332;2023-07-30T06:11:20;3.33;;;2.90;;
23175;SDS011;19910;42.652;23.332;2023-07-30T06:13:47;2.85;;;2.60;;
23175;SDS011;19910;42.652;23.332;2023-07-30T06:16:14;2.95;;;2.50;;
23175;SDS011;19910;42.652;23.332;2023-07-30T06:18:41;2.95;;;2.50;;
23175;SDS011;19910;42.652;23.332;2023-07-30T06:21:07;2.92;;;2.63;;
23175;SDS011;19910;42.652;23.332;2023-07-30T06:23:34;2.63;;;2.42;;
23175;SDS011;19910;42.652;23.332;2023-07-30T06:26:01;3.17;;;2.85;;
23175;SDS011;19910;42.652;23.332;2023-07-30T06:28:29;3.65;;;2.78;;
23175;SDS011;19910;42.652;23.332;2023-07-30T06:30:59;4.15;;;2.85;;
23175;SDS011;19910;42.652;23.332;2023-07-30T06:33:26;3.53;;;2.88;;
23175;SDS011;19910;42.652;23.332;2023-07-30T06:35:53;3.20;;;2.90;;
23175;SDS011;19910;42.652;23.332;2023-07-30T06:38:19;3.33;;;2.78;;
23175;SDS011;19910;42.652;23.332;2023-07-30T06:40:46;3.10;;;2.80;;
23175;SDS011;19910;42.652;23.332;2023-07-30T06:43:13;3.67;;;2.90;;
23175;SDS011;19910;42.652;23.332;2023-07-30T06:45:41;3.20;;;2.90;;
23175;SDS011;19910;42.652;23.332;2023-07-30T06:48:08;4.45;;;2.80;;
23175;SDS011;19910;42.652;23.332;2023-07-30T06:50:35;3.92;;;2.90;;
23175;SDS011;19910;42.652;23.332;2023-07-30T06:53:01;3.50;;;2.92;;
23175;SDS011;19910;42.652;23.332;2023-07-30T06:55:28;3.83;;;3.42;;
23175;SDS011;19910;42.652;23.332;2023-07-30T06:57:55;4.93;;;3.25;;
23175;SDS011;19910;42.652;23.332;2023-07-30T07:00:22;4.35;;;2.63;;
23175;SDS011;19910;42.652;23.332;2023-07-30T07:02:50;3.33;;;3.00;;
23175;SDS011;19910;42.652;23.332;2023-07-30T07:05:17;5.05;;;3.10;;
23175;SDS011;19910;42.652;23.332;2023-07-30T07:07:44;4.22;;;2.53;;
23175;SDS011;19910;42.652;23.332;2023-07-30T07:10:11;3.30;;;2.80;;
23175;SDS011;19910;42.652;23.332;2023-07-30T07:12:38;3.92;;;2.80;;
23175;SDS011;19910;42.652;23.332;2023-07-30T07:15:08;3.30;;;2.80;;
23175;SDS011;19910;42.652;23.332;2023-07-30T07:17:35;4.68;;;3.10;;
23175;SDS011;19910;42.652;23.332;2023-07-30T07:20:04;3.40;;;2.85;;
23175;SDS011;19910;42.652;23.332;2023-07-30T07:22:32;3.35;;;2.80;;
23175;SDS011;19910;42.652;23.332;2023-07-30T07:24:59;5.25;;;2.65;;
23175;SDS011;19910;42.652;23.332;2023-07-30T07:27:26;3.97;;;2.67;;
23175;SDS011;19910;42.652;23.332;2023-07-30T07:29:52;3.10;;;2.58;;
23175;SDS011;19910;42.652;23.332;2023-07-30T07:32:19;3.40;;;3.10;;
23175;SDS011;19910;42.652;23.332;2023-07-30T07:34:46;3.30;;;2.97;;
23175;SDS011;19910;42.652;23.332;2023-07-30T07:37:15;4.68;;;2.80;;
23175;SDS011;19910;42.652;23.332;2023-07-30T07:39:44;4.45;;;2.78;;
23175;SDS011;19910;42.652;23.332;2023-07-30T07:42:10;4.35;;;2.90;;
23175;SDS011;19910;42.652;23.332;2023-07-30T07:44:37;3.70;;;2.83;;
23175;SDS011;19910;42.652;23.332;2023-07-30T07:47:04;4.03;;;2.65;;
23175;SDS011;19910;42.652;23.332;2023-07-30T07:49:31;4.85;;;3.10;;
23175;SDS011;19910;42.652;23.332;2023-07-30T07:51:58;4.28;;;3.10;;
23175;SDS011;19910;42.652;23.332;2023-07-30T07:54:26;3.95;;;2.65;;
23175;SDS011;19910;42.652;23.332;2023-07-30T07:56:53;2.88;;;2.67;;
23175;SDS011;19910;42.652;23.332;2023-07-30T07:59:20;3.47;;;2.95;;
23175;SDS011;19910;42.652;23.332;2023-07-30T08:01:47;3.40;;;3.10;;
23175;SDS011;19910;42.652;23.332;2023-07-30T08:04:13;3.35;;;3.00;;
23175;SDS011;19910;42.652;23.332;2023-07-30T08:06:40;4.13;;;2.97;;
23175;SDS011;19910;42.652;23.332;2023-07-30T08:09:10;3.17;;;2.85;;
23175;SDS011;19910;42.652;23.332;2023-07-30T08:11:38;4.47;;;3.08;;
23175;SDS011;19910;42.652;23.332;2023-07-30T08:14:05;3.88;;;2.90;;
23175;SDS011;19910;42.652;23.332;2023-07-30T08:16:31;3.13;;;2.60;;
23175;SDS011;19910;42.652;23.332;2023-07-30T08:18:58;4.70;;;3.00;;
23175;SDS011;19910;42.652;23.332;2023-07-30T08:21:25;4.97;;;2.90;;
23175;SDS011;19910;42.652;23.332;2023-07-30T08:23:52;3.47;;;2.75;;
23175;SDS011;19910;42.652;23.332;2023-07-30T08:26:19;4.85;;;4.20;;
23175;SDS011;19910;42.652;23.332;2023-07-30T08:28:47;3.95;;;3.25;;
23175;SDS011;19910;42.652;23.332;2023-07-30T08:31:13;5.47;;;3.15;;
23175;SDS011;19910;42.652;23.332;2023-07-30T08:33:40;3.72;;;3.35;;
23175;SDS011;19910;42.652;23.332;2023-07-30T08:36:07;4.93;;;3.40;;
23175;SDS011;19910;42.652;23.332;2023-07-30T08:38:34;4.72;;;3.00;;
23175;SDS011;19910;42.652;23.332;2023-07-30T08:41:00;4.50;;;3.10;;
23175;SDS011;19910;42.652;23.332;2023-07-30T08:43:28;3.92;;;2.90;;
23175;SDS011;19910;42.652;23.332;2023-07-30T08:45:56;3.72;;;3.05;;
23175;SDS011;19910;42.652;23.332;2023-07-30T08:48:24;3.58;;;3.05;;
23175;SDS011;19910;42.652;23.332;2023-07-30T08:50:51;3.75;;;2.97;;
23175;SDS011;19910;42.652;23.332;2023-07-30T08:53:22;5.47;;;3.50;;
23175;SDS011;19910;42.652;23.332;2023-07-30T08:55:50;4.28;;;3.42;;
23175;SDS011;19910;42.652;23.332;2023-07-30T08:58:18;5.80;;;4.22;;
23175;SDS011;19910;42.652;23.332;2023-07-30T09:00:45;4.10;;;3.65;;
23175;SDS011;19910;42.652;23.332;2023-07-30T09:03:17;5.80;;;3.42;;
23175;SDS011;19910;42.652;23.332;2023-07-30T09:05:44;3.63;;;3.08;;
23175;SDS011;19910;42.652;23.332;2023-07-30T09:08:11;4.03;;;3.20;;
23175;SDS011;19910;42.652;23.332;2023-07-30T09:10:38;5.72;;;3.03;;
23175;SDS011;19910;42.652;23.332;2023-07-30T09:13:05;4.93;;;3.30;;
23175;SDS011;19910;42.652;23.332;2023-07-30T09:15:33;3.88;;;3.42;;
23175;SDS011;19910;42.652;23.332;2023-07-30T09:18:02;5.28;;;3.40;;
23175;SDS011;19910;42.652;23.332;2023-07-30T09:20:37;3.85;;;3.05;;
23175;SDS011;19910;42.652;23.332;2023-07-30T09:23:05;3.40;;;2.83;;
23175;SDS011;19910;42.652;23.332;2023-07-30T09:25:32;3.30;;;3.00;;
23175;SDS011;19910;42.652;23.332;2023-07-30T09:27:59;3.15;;;2.85;;
23175;SDS011;19910;42.652;23.332;2023-07-30T09:30:26;5.95;;;2.90;;
23175;SDS011;19910;42.652;23.332;2023-07-30T09:32:54;3.30;;;2.70;;
23175;SDS011;19910;42.652;23.332;2023-07-30T09:35:21;3.33;;;2.70;;
23175;SDS011;19910;42.652;23.332;2023-07-30T09:37:57;4.20;;;2.80;;
23175;SDS011;19910;42.652;23.332;2023-07-30T09:40:30;3.30;;;2.78;;
23175;SDS011;19910;42.652;23.332;2023-07-30T09:42:58;4.63;;;2.90;;
23175;SDS011;19910;42.652;23.332;2023-07-30T09:45:25;3.95;;;2.85;;
23175;SDS011;19910;42.652;23.332;2023-07-30T09:47:53;4.13;;;3.00;;
23175;SDS011;19910;42.652;23.332;2023-07-30T09:50:22;4.03;;;2.92;;
23175;SDS011;19910;42.652;23.332;2023-07-30T09:52:49;5.05;;;3.17;;
23175;SDS011;19910;42.652;23.332;2023-07-30T09:55:17;3.45;;;2.65;;
23175;SDS011;19910;42.652;23.332;2023-07-30T09:57:44;3.38;;;2.80;;
23175;SDS011;19910;42.652;23.332;2023-07-30T10:00:11;4.65;;;2.83;;
23175;SDS011;19910;42.652;23.332;2023-07-30T10:02:39;3.67;;;2.72;;
23175;SDS011;19910;42.652;23.332;2023-07-30T10:05:13;2.90;;;2.60;;
23175;SDS011;19910;42.652;23.332;2023-07-30T10:07:42;3.33;;;2.65;;
23175;SDS011;19910;42.652;23.332;2023-07-30T10:10:13;3.80;;;3.38;;
23175;SDS011;19910;42.652;23.332;2023-07-30T10:12:41;3.92;;;3.28;;
23175;SDS011;19910;42.652;23.332;2023-07-30T10:15:09;5.65;;;3.53;;
23175;SDS011;19910;42.652;23.332;2023-07-30T10:17:36;3.95;;;3.10;;
23175;SDS011;19910;42.652;23.332;2023-07-30T10:20:23;6.93;;;3.30;;
23175;SDS011;19910;42.652;23.332;2023-07-30T10:22:54;3.47;;;2.65;;
23175;SDS011;19910;42.652;23.332;2023-07-30T10:25:22;3.78;;;3.20;;
23175;SDS011;19910;42.652;23.332;2023-07-30T10:27:53;4.55;;;3.30;;
23175;SDS011;19910;42.652;23.332;2023-07-30T10:30:21;3.85;;;3.08;;
23175;SDS011;19910;42.652;23.332;2023-07-30T10:32:58;3.40;;;2.90;;
23175;SDS011;19910;42.652;23.332;2023-07-30T10:35:34;20.23;;;4.97;;
23175;SDS011;19910;42.652;23.332;2023-07-30T10:38:11;4.30;;;3.15;;
23175;SDS011;19910;42.652;23.332;2023-07-30T10:40:39;4.25;;;3.35;;
23175;SDS011;19910;42.652;23.332;2023-07-30T10:43:15;3.78;;;3.20;;
23175;SDS011;19910;42.652;23.332;2023-07-30T10:45:48;3.95;;;2.85;;
23175;SDS011;19910;42.652;23.332;2023-07-30T10:48:15;5.75;;;3.40;;
23175;SDS011;19910;42.652;23.332;2023-07-30T10:50:41;3.78;;;3.10;;
23175;SDS011;19910;42.652;23.332;2023-07-30T10:53:13;5.57;;;3.00;;
23175;SDS011;19910;42.652;23.332;2023-07-30T10:55:40;4.65;;;3.50;;
23175;SDS011;19910;42.652;23.332;2023-07-30T10:58:07;3.70;;;3.13;;
23175;SDS011;19910;42.652;23.332;2023-07-30T11:00:36;4.97;;;3.45;;
23175;SDS011;19910;42.652;23.332;2023-07-30T11:03:03;3.58;;;3.20;;
23175;SDS011;19910;42.652;23.332;2023-07-30T11:05:30;4.07;;;3.60;;
23175;SDS011;19910;42.652;23.332;2023-07-30T11:07:57;4.15;;;3.22;;
23175;SDS011;19910;42.652;23.332;2023-07-30T11:10:24;4.32;;;3.35;;
23175;SDS011;19910;42.652;23.332;2023-07-30T11:12:51;6.88;;;3.42;;
23175;SDS011;19910;42.652;23.332;2023-07-30T11:15:18;5.88;;;3.80;;
23175;SDS011;19910;42.652;23.332;2023-07-30T11:17:46;4.63;;;3.55;;
23175;SDS011;19910;42.652;23.332;2023-07-30T11:20:22;4.85;;;3.22;;
23175;SDS011;19910;42.652;23.332;2023-07-30T11:22:52;3.83;;;3.50;;
23175;SDS011;19910;42.652;23.332;2023-07-30T11:25:18;4.22;;;3.60;;
23175;SDS011;19910;42.652;23.332;2023-07-30T11:27:46;4.43;;;3.72;;
23175;SDS011;19910;42.652;23.332;2023-07-30T11:30:13;5.00;;;3.63;;
23175;SDS011;19910;42.652;23.332;2023-07-30T11:32:41;4.85;;;3.55;;
23175;SDS011;19910;42.652;23.332;2023-07-30T11:35:11;4.70;;;3.47;;
23175;SDS011;19910;42.652;23.332;2023-07-30T11:37:38;6.13;;;3.53;;
23175;SDS011;19910;42.652;23.332;2023-07-30T11:40:08;4.63;;;3.47;;
23175;SDS011;19910;42.652;23.332;2023-07-30T11:42:35;5.90;;;3.80;;
23175;SDS011;19910;42.652;23.332;2023-07-30T11:45:18;3.72;;;3.33;;
23175;SDS011;19910;42.652;23.332;2023-07-30T11:47:46;4.15;;;3.42;;
23175;SDS011;19910;42.652;23.332;2023-07-30T11:50:14;3.53;;;3.22;;
23175;SDS011;19910;42.652;23.332;2023-07-30T11:52:51;4.90;;;3.75;;
23175;SDS011;19910;42.652;23.332;2023-07-30T11:55:18;3.38;;;2.92;;
23175;SDS011;19910;42.652;23.332;2023-07-30T11:57:46;4.55;;;3.33;;
23175;SDS011;19910;42.652;23.332;2023-07-30T12:00:13;5.18;;;3.47;;
23175;SDS011;19910;42.652;23.332;2023-07-30T12:02:40;4.43;;;3.38;;
23175;SDS011;19910;42.652;23.332;2023-07-30T12:05:09;4.15;;;3.22;;
23175;SDS011;19910;42.652;23.332;2023-07-30T12:07:40;5.80;;;3.40;;
23175;SDS011;19910;42.652;23.332;2023-07-30T12:10:08;3.55;;;3.22;;
23175;SDS011;19910;42.652;23.332;2023-07-30T12:12:35;4.55;;;3.60;;
23175;SDS011;19910;42.652;23.332;2023-07-30T12:15:09;4.57;;;3.53;;
23175;SDS011;19910;42.652;23.332;2023-07-30T12:17:36;4.85;;;3.42;;
23175;SDS011;19910;42.652;23.332;2023-07-30T12:20:04;6.05;;;3.90;;
23175;SDS011;19910;42.652;23.332;2023-07-30T12:22:31;4.22;;;3.38;;
23175;SDS011;19910;42.652;23.332;2023-07-30T12:25:00;5.03;;;3.42;;
23175;SDS011;19910;42.652;23.332;2023-07-30T12:27:28;4.88;;;3.80;;
23175;SDS011;19910;42.652;23.332;2023-07-30T12:29:55;4.07;;;3.20;;
23175;SDS011;19910;42.652;23.332;2023-07-30T12:32:25;5.07;;;3.90;;
23175;SDS011;19910;42.652;23.332;2023-07-30T12:34:53;3.85;;;3.47;;
23175;SDS011;19910;42.652;23.332;2023-07-30T12:37:20;5.20;;;3.90;;
23175;SDS011;19910;42.652;23.332;2023-07-30T12:39:47;4.25;;;3.60;;
23175;SDS011;19910;42.652;23.332;2023-07-30T12:42:15;5.97;;;3.50;;
23175;SDS011;19910;42.652;23.332;2023-07-30T12:44:42;4.15;;;3.72;;
23175;SDS011;19910;42.652;23.332;2023-07-30T12:47:09;5.43;;;3.60;;
23175;SDS011;19910;42.652;23.332;2023-07-30T12:49:35;5.50;;;3.80;;
23175;SDS011;19910;42.652;23.332;2023-07-30T12:52:02;4.18;;;3.60;;
23175;SDS011;19910;42.652;23.332;2023-07-30T12:54:30;6.95;;;4.07;;
23175;SDS011;19910;42.652;23.332;2023-07-30T12:56:56;4.13;;;3.72;;
23175;SDS011;19910;42.652;23.332;2023-07-30T12:59:25;5.20;;;3.70;;
23175;SDS011;19910;42.652;23.332;2023-07-30T13:01:51;5.72;;;3.90;;
23175;SDS011;19910;42.652;23.332;2023-07-30T13:04:18;5.85;;;3.95;;
23175;SDS011;19910;42.652;23.332;2023-07-30T13:06:45;4.88;;;3.65;;
23175;SDS011;19910;42.652;23.332;2023-07-30T13:09:12;4.30;;;3.90;;
23175;SDS011;19910;42.652;23.332;2023-07-30T13:11:39;3.70;;;3.25;;
23175;SDS011;19910;42.652;23.332;2023-07-30T13:14:06;4.72;;;3.58;;
23175;SDS011;19910;42.652;23.332;2023-07-30T13:16:34;4.32;;;3.80;;
23175;SDS011;19910;42.652;23.332;2023-07-30T13:19:00;5.68;;;3.70;;
23175;SDS011;19910;42.652;23.332;2023-07-30T13:21:27;4.95;;;3.70;;
23175;SDS011;19910;42.652;23.332;2023-07-30T13:23:54;5.80;;;4.15;;
23175;SDS011;19910;42.652;23.332;2023-07-30T13:26:21;4.75;;;3.55;;
23175;SDS011;19910;42.652;23.332;2023-07-30T13:28:47;4.55;;;3.78;;
23175;SDS011;19910;42.652;23.332;2023-07-30T13:31:14;4.53;;;3.90;;
23175;SDS011;19910;42.652;23.332;2023-07-30T13:33:42;4.85;;;3.80;;
23175;SDS011;19910;42.652;23.332;2023-07-30T13:36:10;4.35;;;3.95;;
23175;SDS011;19910;42.652;23.332;2023-07-30T13:38:37;4.63;;;3.90;;
23175;SDS011;19910;42.652;23.332;2023-07-30T13:41:04;5.45;;;3.70;;
23175;SDS011;19910;42.652;23.332;2023-07-30T13:43:32;4.82;;;4.05;;
23175;SDS011;19910;42.652;23.332;2023-07-30T13:45:59;5.05;;;4.28;;
23175;SDS011;19910;42.652;23.332;2023-07-30T13:48:25;5.03;;;3.67;;
23175;SDS011;19910;42.652;23.332;2023-07-30T13:50:54;5.38;;;4.20;;
23175;SDS011;19910;42.652;23.332;2023-07-30T13:53:20;5.38;;;4.13;;
23175;SDS011;19910;42.652;23.332;2023-07-30T13:55:47;5.43;;;3.95;;
23175;SDS011;19910;42.652;23.332;2023-07-30T13:58:14;5.43;;;3.95;;
23175;SDS011;19910;42.652;23.332;2023-07-30T14:00:41;4.15;;;3.75;;
23175;SDS011;19910;42.652;23.332;2023-07-30T14:03:08;5.10;;;4.35;;
23175;SDS011;19910;42.652;23.332;2023-07-30T14:05:36;4.78;;;3.47;;
23175;SDS011;19910;42.652;23.332;2023-07-30T14:08:04;7.45;;;4.35;;
23175;SDS011;19910;42.652;23.332;2023-07-30T14:10:31;7.15;;;4.25;;
23175;SDS011;19910;42.652;23.332;2023-07-30T14:12:58;4.65;;;4.00;;
23175;SDS011;19910;42.652;23.332;2023-07-30T14:15:25;8.18;;;4.22;;
23175;SDS011;19910;42.652;23.332;2023-07-30T14:17:51;5.93;;;3.85;;
23175;SDS011;19910;42.652;23.332;2023-07-30T14:20:19;15.50;;;4.60;;
23175;SDS011;19910;42.652;23.332;2023-07-30T14:22:46;5.03;;;4.53;;
23175;SDS011;19910;42.652;23.332;2023-07-30T14:25:15;8.93;;;4.68;;
23175;SDS011;19910;42.652;23.332;2023-07-30T14:27:42;4.60;;;4.15;;
23175;SDS011;19910;42.652;23.332;2023-07-30T14:30:12;4.75;;;3.90;;
23175;SDS011;19910;42.652;23.332;2023-07-30T14:32:39;11.38;;;4.72;;
23175;SDS011;19910;42.652;23.332;2023-07-30T14:35:06;5.13;;;4.22;;